createdAt,value
2022-10-31T00:01:32.889Z,99973.22
2022-10-31T00:04:01.476Z,99974.25
2022-10-31T00:06:30.733Z,99976.03
2022-10-31T00:09:01.691Z,99976.84
2022-10-31T00:11:31.035Z,99980.31
2022-10-31T00:14:01.189Z,99982.00
2022-10-31T00:16:30.844Z,99992.34
2022-10-31T00:19:01.320Z,99990.53
2022-10-31T00:21:30.162Z,99982.75
2022-10-31T00:23:59.434Z,99990.72
2022-10-31T00:26:29.853Z,99987.16
2022-10-31T00:28:59.208Z,99983.59
2022-10-31T00:31:31.304Z,99983.50
2022-10-31T00:34:00.277Z,99983.63
2022-10-31T00:36:29.155Z,99983.66
2022-10-31T00:38:57.615Z,99987.22
2022-10-31T00:41:26.438Z,99983.78
2022-10-31T00:43:54.847Z,99983.97
2022-10-31T00:46:23.672Z,99984.84
2022-10-31T00:48:54.329Z,99980.41
2022-10-31T00:51:23.276Z,99982.19
2022-10-31T00:53:51.639Z,99986.50
2022-10-31T00:56:20.260Z,99992.63
2022-10-31T00:58:48.644Z,99993.50
2022-10-31T01:01:17.683Z,99987.44
2022-10-31T01:03:46.962Z,99998.16
2022-10-31T01:06:17.027Z,99999.31
2022-10-31T01:08:45.575Z,100003.75
2022-10-31T01:11:19.761Z,100002.00
2022-10-31T01:13:49.192Z,100006.41
2022-10-31T01:16:21.402Z,100006.28
2022-10-31T01:18:52.281Z,100005.44
2022-10-31T01:21:25.791Z,100004.75
2022-10-31T01:23:56.211Z,99997.00
2022-10-31T01:26:26.625Z,100004.09
2022-10-31T01:28:57.658Z,100002.63
2022-10-31T01:31:28.875Z,100000.78
2022-10-31T01:33:57.626Z,99994.56
2022-10-31T01:36:29.478Z,100004.03
2022-10-31T01:38:59.484Z,99996.09
2022-10-31T01:41:30.279Z,99995.38
2022-10-31T01:44:00.833Z,100000.69
2022-10-31T01:46:33.260Z,99995.56
2022-10-31T01:49:04.163Z,99992.22
2022-10-31T01:51:36.991Z,99997.47
2022-10-31T01:54:10.107Z,99987.13
2022-10-31T01:56:43.403Z,99989.94
2022-10-31T01:59:18.482Z,99986.56
2022-10-31T02:01:48.615Z,99989.19
2022-10-31T02:04:17.986Z,99986.47
2022-10-31T02:06:53.318Z,99979.50
2022-10-31T02:09:24.421Z,99983.09
2022-10-31T02:11:56.599Z,99975.09
2022-10-31T02:14:27.561Z,99972.38
2022-10-31T02:16:56.813Z,99968.72
2022-10-31T02:19:36.336Z,99972.97
2022-10-31T02:22:16.491Z,99974.63
2022-10-31T02:25:01.690Z,99972.81
2022-10-31T02:27:58.985Z,99975.44
2022-10-31T02:30:39.607Z,99969.31
2022-10-31T02:33:22.985Z,99974.47
2022-10-31T02:36:02.607Z,99969.31
2022-10-31T02:38:44.060Z,99968.34
2022-10-31T02:41:25.587Z,99965.88
2022-10-31T02:44:05.392Z,99969.44
2022-10-31T02:46:40.265Z,99965.28
2022-10-31T02:49:18.655Z,99973.56
2022-10-31T02:51:48.056Z,99975.22
2022-10-31T02:54:24.511Z,99986.47
2022-10-31T02:57:00.777Z,99977.75
2022-10-31T02:59:32.383Z,99985.63
2022-10-31T03:02:16.134Z,99978.44
2022-10-31T03:05:07.074Z,99979.31
2022-10-31T03:07:43.384Z,99978.44
2022-10-31T03:10:22.328Z,99980.16
2022-10-31T03:13:02.260Z,99987.22
2022-10-31T03:15:34.809Z,99989.03
2022-10-31T03:18:08.789Z,99983.66
2022-10-31T03:20:43.237Z,99978.38
2022-10-31T03:23:15.982Z,99984.56
2022-10-31T03:25:47.239Z,99984.56
2022-10-31T03:28:21.001Z,99981.16
2022-10-31T03:30:52.749Z,99987.06
2022-10-31T03:33:28.793Z,99993.28
2022-10-31T03:36:05.015Z,99993.13
2022-10-31T03:38:35.962Z,99995.75
2022-10-31T03:41:11.773Z,99997.34
2022-10-31T03:43:48.477Z,100006.94
2022-10-31T03:46:17.216Z,99998.09
2022-10-31T03:48:45.959Z,100004.16
2022-10-31T03:51:22.074Z,100002.47
2022-10-31T03:53:58.651Z,100003.25
2022-10-31T03:56:36.723Z,100005.94
2022-10-31T03:59:10.212Z,100003.47
2022-10-31T04:01:45.717Z,100003.47
2022-10-31T04:04:15.583Z,100004.31
2022-10-31T04:06:48.599Z,100004.22
2022-10-31T04:09:18.606Z,100004.22
2022-10-31T04:11:50.874Z,100001.56
2022-10-31T04:14:50.033Z,100004.22
2022-10-31T04:17:22.165Z,100005.16
2022-10-31T04:19:51.043Z,99996.41
2022-10-31T04:22:21.896Z,100006.91
2022-10-31T04:24:50.226Z,100000.69
2022-10-31T04:27:20.246Z,99999.84
2022-10-31T04:29:50.850Z,99997.25
2022-10-31T04:32:20.932Z,100005.09
2022-10-31T04:34:49.367Z,100005.88
2022-10-31T04:37:17.971Z,100009.34
2022-10-31T04:39:48.136Z,100010.22
2022-10-31T04:42:37.035Z,100006.69
2022-10-31T04:45:08.419Z,100006.72
2022-10-31T04:47:38.390Z,100013.75
2022-10-31T04:50:08.269Z,100008.50
2022-10-31T04:52:41.223Z,100015.53
2022-10-31T04:55:13.228Z,100021.63
2022-10-31T04:58:01.089Z,100019.00
2022-10-31T05:00:29.992Z,100013.75
2022-10-31T05:03:00.785Z,100021.75
2022-10-31T05:05:32.177Z,100024.41
2022-10-31T05:08:03.266Z,100023.59
2022-10-31T05:10:34.811Z,100020.97
2022-10-31T05:13:06.432Z,100021.94
2022-10-31T05:15:51.328Z,100021.06
2022-10-31T05:18:39.228Z,100021.94
2022-10-31T05:21:26.226Z,100028.91
2022-10-31T05:23:59.656Z,100035.88
2022-10-31T05:26:30.046Z,100035.06
2022-10-31T05:28:58.834Z,100042.19
2022-10-31T05:31:27.735Z,100036.06
2022-10-31T05:33:56.717Z,100044.03
2022-10-31T05:36:43.683Z,100041.47
2022-10-31T05:39:15.286Z,100038.91
2022-10-31T05:41:49.111Z,100038.13
2022-10-31T05:44:22.683Z,100040.78
2022-10-31T05:47:09.434Z,100040.00
2022-10-31T05:49:58.262Z,100042.69
2022-10-31T05:52:57.589Z,100046.97
2022-10-31T05:55:33.834Z,100053.19
2022-10-31T05:58:20.331Z,100054.81
2022-10-31T06:01:00.905Z,100053.97
2022-10-31T06:03:29.310Z,100047.94
2022-10-31T06:05:59.498Z,100047.06
2022-10-31T06:08:48.172Z,100046.09
2022-10-31T06:11:21.548Z,100045.91
2022-10-31T06:14:03.991Z,100050.34
2022-10-31T06:16:54.049Z,100051.22
2022-10-31T06:19:40.356Z,100060.03
2022-10-31T06:22:13.323Z,100064.28
2022-10-31T06:24:41.915Z,100055.53
2022-10-31T06:27:23.519Z,100067.75
2022-10-31T06:29:53.768Z,100064.16
2022-10-31T06:32:34.092Z,100067.78
2022-10-31T06:35:03.452Z,100071.97
2022-10-31T06:37:32.164Z,100073.59
2022-10-31T06:40:08.334Z,100073.41
2022-10-31T06:43:01.362Z,100080.13
2022-10-31T06:45:32.551Z,100080.16
2022-10-31T06:48:21.972Z,100082.63
2022-10-31T06:51:20.037Z,100079.13
2022-10-31T06:53:51.704Z,100077.03
2022-10-31T06:56:20.796Z,100072.31
2022-10-31T06:58:53.714Z,100074.31
2022-10-31T07:01:37.737Z,100080.22
2022-10-31T07:04:06.760Z,100087.91
2022-10-31T07:06:37.454Z,100087.66
2022-10-31T07:09:06.843Z,100088.41
2022-10-31T07:11:35.849Z,100086.47
2022-10-31T07:14:04.856Z,100085.31
2022-10-31T07:16:33.492Z,100081.63
2022-10-31T07:19:08.548Z,100076.25
2022-10-31T07:21:37.145Z,100085.81
2022-10-31T07:24:07.325Z,100083.00
2022-10-31T07:26:43.305Z,100085.53
2022-10-31T07:29:12.792Z,100088.00
2022-10-31T07:31:41.422Z,100084.41
2022-10-31T07:34:20.201Z,100082.53
2022-10-31T07:37:08.168Z,100086.81
2022-10-31T07:39:39.065Z,100071.81
2022-10-31T07:42:09.291Z,100080.41
2022-10-31T07:44:41.046Z,100076.69
2022-10-31T07:47:28.586Z,100075.72
2022-10-31T07:50:12.327Z,100085.38
2022-10-31T07:53:03.067Z,100091.03
2022-10-31T07:55:46.648Z,100078.91
2022-10-31T07:58:18.181Z,100092.84
2022-10-31T08:00:49.397Z,100092.13
2022-10-31T08:03:28.349Z,100091.81
2022-10-31T08:06:14.158Z,100087.28
2022-10-31T08:09:01.426Z,100082.06
2022-10-31T08:11:30.373Z,100084.94
2022-10-31T08:13:59.775Z,100082.66
2022-10-31T08:16:29.697Z,100075.97
2022-10-31T08:19:02.715Z,100081.56
2022-10-31T08:21:35.930Z,100076.69
2022-10-31T08:24:04.680Z,100069.31
2022-10-31T08:26:34.901Z,100076.78
2022-10-31T08:29:05.032Z,100066.59
2022-10-31T08:31:40.327Z,100075.19
2022-10-31T08:34:29.935Z,100071.25
2022-10-31T08:37:20.931Z,100076.13
2022-10-31T08:39:55.742Z,100064.22
2022-10-31T08:42:25.393Z,100063.22
2022-10-31T08:44:54.325Z,100068.34
2022-10-31T08:47:24.987Z,100071.19
2022-10-31T08:49:53.657Z,100070.00
2022-10-31T08:53:03.553Z,100068.69
2022-10-31T08:55:32.804Z,100065.94
2022-10-31T08:58:08.059Z,100066.81
2022-10-31T09:00:43.144Z,100071.59
2022-10-31T09:03:23.892Z,100074.22
2022-10-31T09:05:56.722Z,100066.50
2022-10-31T09:08:27.471Z,100063.94
2022-10-31T09:10:58.628Z,100060.69
2022-10-31T09:13:47.417Z,100067.19
2022-10-31T09:16:44.640Z,100049.72
2022-10-31T09:19:20.430Z,100057.97
2022-10-31T09:21:49.473Z,100058.53
2022-10-31T09:24:19.853Z,100056.56
2022-10-31T09:26:48.643Z,100057.06
2022-10-31T09:29:21.512Z,100056.97
2022-10-31T09:31:58.822Z,100054.34
2022-10-31T09:34:30.672Z,100058.28
2022-10-31T09:37:07.544Z,100053.69
2022-10-31T09:39:39.083Z,100054.69
2022-10-31T09:42:40.305Z,100057.50
2022-10-31T09:45:24.472Z,100049.31
2022-10-31T09:48:12.389Z,100048.75
2022-10-31T09:51:05.944Z,100059.00
2022-10-31T09:53:45.583Z,100059.84
2022-10-31T09:56:23.809Z,100060.34
2022-10-31T09:58:59.238Z,100061.44
2022-10-31T10:01:41.327Z,100058.84
2022-10-31T10:04:27.639Z,100063.63
2022-10-31T10:07:07.990Z,100063.56
2022-10-31T10:09:45.444Z,100065.94
2022-10-31T10:13:03.575Z,100060.97
2022-10-31T10:16:03.002Z,100064.09
2022-10-31T10:18:45.949Z,100054.94
2022-10-31T10:21:28.038Z,100062.50
2022-10-31T10:24:12.174Z,100060.50
2022-10-31T10:26:45.541Z,100057.78
2022-10-31T10:29:31.263Z,100059.59
2022-10-31T10:32:04.927Z,100057.94
2022-10-31T10:34:39.664Z,100055.72
2022-10-31T10:37:23.320Z,100049.47
2022-10-31T10:39:57.879Z,100050.34
2022-10-31T10:42:47.389Z,100045.44
2022-10-31T10:45:38.236Z,100047.66
2022-10-31T10:48:16.505Z,100048.22
2022-10-31T10:50:51.172Z,100044.84
2022-10-31T10:53:39.653Z,100047.50
2022-10-31T10:56:17.731Z,100045.28
2022-10-31T10:58:47.286Z,100040.75
2022-10-31T11:01:18.163Z,100045.88
2022-10-31T11:03:46.905Z,100041.19
2022-10-31T11:06:23.234Z,100046.16
2022-10-31T11:08:52.123Z,100046.31
2022-10-31T11:11:32.906Z,100033.97
2022-10-31T11:14:05.804Z,100037.41
2022-10-31T11:16:41.380Z,100035.00
2022-10-31T11:19:21.710Z,100019.78
2022-10-31T11:21:52.850Z,100030.53
2022-10-31T11:24:26.488Z,100018.56
2022-10-31T11:27:15.666Z,100018.53
2022-10-31T11:29:44.718Z,100017.28
2022-10-31T11:32:24.377Z,100011.44
2022-10-31T11:34:57.069Z,100000.69
2022-10-31T11:37:28.604Z,99999.59
2022-10-31T11:40:00.975Z,99997.34
2022-10-31T11:42:37.053Z,99999.09
2022-10-31T11:45:16.426Z,99993.75
2022-10-31T11:47:52.958Z,99983.00
2022-10-31T11:50:28.307Z,99980.44
2022-10-31T11:52:57.661Z,99981.28
2022-10-31T11:55:38.218Z,99978.31
2022-10-31T11:58:20.011Z,99973.22
2022-10-31T12:00:53.507Z,99964.13
2022-10-31T12:03:36.106Z,99964.78
2022-10-31T12:06:09.682Z,99956.78
2022-10-31T12:08:40.709Z,99955.03
2022-10-31T12:11:20.969Z,99959.06
2022-10-31T12:14:03.991Z,99950.88
2022-10-31T12:16:43.333Z,99954.97
2022-10-31T12:19:24.288Z,99953.28
2022-10-31T12:22:10.683Z,99945.75
2022-10-31T12:24:54.989Z,99949.41
2022-10-31T12:27:35.833Z,99949.91
2022-10-31T12:30:16.049Z,99951.78
2022-10-31T12:33:06.004Z,99948.63
2022-10-31T12:35:46.847Z,99948.63
2022-10-31T12:38:30.575Z,99945.63
2022-10-31T12:41:14.979Z,99953.09
2022-10-31T12:43:49.593Z,99950.63
2022-10-31T12:46:28.104Z,99961.47
2022-10-31T12:49:25.250Z,99955.19
2022-10-31T12:52:12.664Z,99966.81
2022-10-31T12:55:04.375Z,99959.44
2022-10-31T12:57:38.439Z,99965.03
2022-10-31T13:00:15.243Z,99960.19
2022-10-31T13:02:52.252Z,99964.63
2022-10-31T13:05:29.091Z,99957.69
2022-10-31T13:08:08.172Z,99962.50
2022-10-31T13:10:42.977Z,99968.38
2022-10-31T13:13:20.226Z,99969.88
2022-10-31T13:15:54.394Z,99971.97
2022-10-31T13:18:30.668Z,99970.44
2022-10-31T13:21:04.112Z,99972.31
2022-10-31T13:23:57.468Z,99972.25
2022-10-31T13:26:39.034Z,99970.50
2022-10-31T13:29:18.542Z,99965.84
2022-10-31T13:31:47.943Z,99962.31
2022-10-31T13:34:29.848Z,99958.59
2022-10-31T13:37:07.368Z,99962.38
2022-10-31T13:39:56.969Z,99962.31
2022-10-31T13:42:41.038Z,99962.38
2022-10-31T13:45:15.450Z,99955.56
2022-10-31T13:47:56.775Z,99954.88
2022-10-31T13:50:30.159Z,99952.97
2022-10-31T13:53:14.024Z,99957.41
2022-10-31T13:55:46.435Z,99954.19
2022-10-31T13:58:27.843Z,99953.34
2022-10-31T14:01:18.760Z,99945.34
2022-10-31T14:04:07.633Z,99943.25
2022-10-31T14:06:47.662Z,99945.94
2022-10-31T14:09:35.535Z,99946.38
2022-10-31T14:12:12.965Z,99944.13
2022-10-31T14:14:49.962Z,99942.38
2022-10-31T14:17:23.583Z,99946.47
2022-10-31T14:20:25.153Z,99947.19
2022-10-31T14:22:54.617Z,99944.41
2022-10-31T14:25:34.952Z,99950.25
2022-10-31T14:28:22.357Z,99950.19
2022-10-31T14:30:56.027Z,99949.84
2022-10-31T14:33:31.058Z,99947.25
2022-10-31T14:36:18.892Z,99942.44
2022-10-31T14:39:01.929Z,99947.53
2022-10-31T14:41:47.415Z,99960.09
2022-10-31T14:45:10.542Z,99957.38
2022-10-31T14:47:49.727Z,99958.63
2022-10-31T14:50:36.612Z,99956.78
2022-10-31T14:53:08.930Z,99957.34
2022-10-31T14:55:45.699Z,99959.25
2022-10-31T14:58:20.824Z,99951.53
2022-10-31T15:00:54.385Z,99951.78
2022-10-31T15:03:30.523Z,99945.47
2022-10-31T15:06:04.549Z,99939.06
2022-10-31T15:08:40.942Z,99948.97
2022-10-31T15:11:14.848Z,99941.31
2022-10-31T15:13:48.144Z,99960.09
2022-10-31T15:16:22.805Z,99953.66
2022-10-31T15:18:55.223Z,99952.72
2022-10-31T15:21:26.706Z,99947.06
2022-10-31T15:23:57.629Z,99956.03
2022-10-31T15:26:32.301Z,99946.50
2022-10-31T15:29:03.287Z,99946.94
2022-10-31T15:31:34.162Z,99948.78
2022-10-31T15:34:07.784Z,99950.69
2022-10-31T15:36:38.748Z,99952.16
2022-10-31T15:39:07.619Z,99948.78
2022-10-31T15:41:41.216Z,99949.13
2022-10-31T15:44:17.627Z,99953.28
2022-10-31T15:46:56.213Z,99952.81
2022-10-31T15:49:38.081Z,99951.31
2022-10-31T15:52:17.220Z,99960.25
2022-10-31T15:54:50.877Z,99959.91
2022-10-31T15:57:20.290Z,99967.28
2022-10-31T15:59:50.617Z,99958.75
2022-10-31T16:02:24.845Z,99969.28
2022-10-31T16:04:56.988Z,99972.38
2022-10-31T16:07:26.846Z,99971.56
2022-10-31T16:09:57.828Z,99970.09
2022-10-31T16:12:31.751Z,99974.38
2022-10-31T16:15:00.469Z,99973.63
2022-10-31T16:17:31.122Z,99978.22
2022-10-31T16:20:04.095Z,99981.00
2022-10-31T16:22:36.517Z,99974.22
2022-10-31T16:25:11.906Z,99984.13
2022-10-31T16:27:42.192Z,99980.66
2022-10-31T16:30:33.455Z,99991.22
2022-10-31T16:33:04.242Z,99988.97
2022-10-31T16:35:36.506Z,99983.78
2022-10-31T16:38:09.194Z,99985.81
2022-10-31T16:40:57.792Z,99993.84
2022-10-31T16:43:27.977Z,99994.88
2022-10-31T16:45:57.302Z,100002.94
2022-10-31T16:48:29.251Z,99999.38
2022-10-31T16:50:58.807Z,99998.16
2022-10-31T16:53:28.554Z,100001.66
2022-10-31T16:56:00.927Z,100002.78
2022-10-31T16:58:34.875Z,100003.00
2022-10-31T17:01:06.865Z,100003.81
2022-10-31T17:03:38.005Z,100007.81
2022-10-31T17:06:07.482Z,100009.38
2022-10-31T17:08:36.655Z,100013.13
2022-10-31T17:11:05.818Z,100007.81
2022-10-31T17:13:36.107Z,100017.75
2022-10-31T17:16:05.655Z,100018.50
2022-10-31T17:18:34.712Z,100016.84
2022-10-31T17:21:07.086Z,100020.25
2022-10-31T17:23:36.038Z,100015.47
2022-10-31T17:26:04.716Z,100021.63
2022-10-31T17:28:33.583Z,100016.94
2022-10-31T17:31:02.406Z,100022.03
2022-10-31T17:33:31.429Z,100017.59
2022-10-31T17:36:00.212Z,100015.91
2022-10-31T17:38:31.043Z,100015.03
2022-10-31T17:41:03.625Z,100018.47
2022-10-31T17:43:35.212Z,100020.31
2022-10-31T17:46:04.139Z,100017.66
2022-10-31T17:48:35.279Z,100020.31
2022-10-31T17:51:10.261Z,100025.56
2022-10-31T17:53:43.376Z,100022.75
2022-10-31T17:56:16.175Z,100020.88
2022-10-31T17:58:47.826Z,100019.88
2022-10-31T18:01:18.836Z,100013.63
2022-10-31T18:03:48.070Z,100019.69
2022-10-31T18:06:17.443Z,100019.53
2022-10-31T18:08:47.814Z,100021.13
2022-10-31T18:11:20.858Z,100012.28
2022-10-31T18:13:55.290Z,100011.38
2022-10-31T18:16:25.795Z,100007.81
2022-10-31T18:18:59.449Z,100009.66
2022-10-31T18:21:28.336Z,100004.56
2022-10-31T18:24:00.391Z,100005.53
2022-10-31T18:26:29.943Z,100004.72
2022-10-31T18:28:59.686Z,100004.78
2022-10-31T18:31:29.410Z,100005.75
2022-10-31T18:33:58.558Z,99996.00
2022-10-31T18:36:28.723Z,100008.34
2022-10-31T18:39:00.320Z,100003.09
2022-10-31T18:41:29.551Z,100007.59
2022-10-31T18:44:00.561Z,100005.78
2022-10-31T18:46:30.044Z,100006.75
2022-10-31T18:48:59.544Z,99998.81
2022-10-31T18:51:29.537Z,100003.13
2022-10-31T18:54:02.200Z,100004.00
2022-10-31T18:56:52.720Z,100004.16
2022-10-31T18:59:22.238Z,100002.34
2022-10-31T19:01:51.218Z,99999.84
2022-10-31T19:04:20.376Z,99998.13
2022-10-31T19:06:53.542Z,100000.81
2022-10-31T19:09:30.005Z,100005.31
2022-10-31T19:12:26.473Z,100010.41
2022-10-31T19:14:57.702Z,100007.19
2022-10-31T19:17:26.637Z,100000.50
2022-10-31T19:19:56.493Z,100005.03
2022-10-31T19:22:25.630Z,100002.00
2022-10-31T19:24:56.495Z,100000.06
2022-10-31T19:27:26.652Z,100004.44
2022-10-31T19:29:56.018Z,100010.59
2022-10-31T19:32:24.614Z,100008.03
2022-10-31T19:34:54.078Z,100008.91
2022-10-31T19:37:22.857Z,100010.50
2022-10-31T19:39:52.849Z,100015.78
2022-10-31T19:42:24.460Z,100019.56
2022-10-31T19:44:53.770Z,100016.53
2022-10-31T19:47:22.356Z,100014.81
2022-10-31T19:49:51.122Z,100013.84
2022-10-31T19:52:20.216Z,100017.38
2022-10-31T19:54:49.269Z,100012.00
2022-10-31T19:57:20.595Z,100021.44
2022-10-31T20:00:00.505Z,100011.56
2022-10-31T20:02:29.841Z,100011.47
2022-10-31T20:05:00.026Z,100012.41
2022-10-31T20:07:28.920Z,100011.47
2022-10-31T20:09:58.249Z,100016.69
2022-10-31T20:12:27.030Z,100014.03
2022-10-31T20:14:57.515Z,100015.75
2022-10-31T20:17:26.282Z,100012.16
2022-10-31T20:19:55.425Z,100020.84
2022-10-31T20:22:24.101Z,100015.50
2022-10-31T20:24:54.136Z,100003.25
2022-10-31T20:27:23.149Z,100003.38
2022-10-31T20:29:51.994Z,100012.22
2022-10-31T20:32:24.014Z,100012.22
2022-10-31T20:34:53.385Z,100008.66
2022-10-31T20:37:22.028Z,100008.59
2022-10-31T20:39:54.144Z,100014.78
2022-10-31T20:42:25.325Z,100018.69
2022-10-31T20:44:54.148Z,100013.38
2022-10-31T20:47:25.892Z,100006.25
2022-10-31T20:49:55.812Z,100007.94
2022-10-31T20:52:24.679Z,100006.28
2022-10-31T20:55:13.870Z,100005.53
2022-10-31T20:57:42.820Z,100008.22
2022-10-31T21:00:12.679Z,100018.81
2022-10-31T21:02:43.066Z,100018.72
2022-10-31T21:05:13.751Z,100017.84
2022-10-31T21:07:42.514Z,100013.25
2022-10-31T21:10:15.837Z,100016.69
2022-10-31T21:12:45.752Z,100018.44
2022-10-31T21:15:15.726Z,100013.13
2022-10-31T21:17:45.829Z,100013.19
2022-10-31T21:20:14.840Z,100012.31
2022-10-31T21:22:45.182Z,100012.34
2022-10-31T21:25:14.085Z,100021.19
2022-10-31T21:27:42.697Z,100019.47
2022-10-31T21:30:11.870Z,100009.84
2022-10-31T21:32:40.551Z,100018.69
2022-10-31T21:35:11.558Z,100013.38
2022-10-31T21:37:40.089Z,100006.31
2022-10-31T21:40:10.297Z,100006.41
2022-10-31T21:42:59.785Z,100016.09
2022-10-31T21:45:29.232Z,100017.03
2022-10-31T21:47:57.742Z,100010.91
2022-10-31T21:50:27.722Z,100006.59
2022-10-31T21:52:56.336Z,100013.69
2022-10-31T21:55:24.395Z,100011.94
2022-10-31T21:57:53.311Z,100010.19
2022-10-31T22:00:22.225Z,100009.34
2022-10-31T22:02:57.063Z,100014.63
2022-10-31T22:05:28.742Z,100012.13
2022-10-31T22:07:58.537Z,99997.28
2022-10-31T22:10:27.445Z,99999.94
2022-10-31T22:12:56.145Z,100003.50
2022-10-31T22:15:25.128Z,99999.94
2022-10-31T22:17:53.590Z,99992.94
2022-10-31T22:20:24.556Z,99988.56
2022-10-31T22:22:54.372Z,99990.41
2022-10-31T22:25:23.132Z,99994.78
2022-10-31T22:27:53.130Z,99997.47
2022-10-31T22:30:21.857Z,99992.22
2022-10-31T22:32:50.275Z,99989.59
2022-10-31T22:35:19.124Z,99997.59
2022-10-31T22:37:47.685Z,99994.88
2022-10-31T22:40:18.148Z,99997.50
2022-10-31T22:42:46.809Z,99993.16
2022-10-31T22:45:16.324Z,99992.31
2022-10-31T22:47:45.115Z,99985.41
2022-10-31T22:50:13.973Z,99984.50
2022-10-31T22:52:42.705Z,99981.97
2022-10-31T22:55:11.407Z,99987.25
2022-10-31T22:57:41.882Z,99987.25
2022-10-31T23:00:11.747Z,99983.78
2022-10-31T23:02:40.271Z,99989.97
2022-10-31T23:05:09.447Z,99981.22
2022-10-31T23:07:38.251Z,99984.72
2022-10-31T23:10:07.999Z,99987.41
2022-10-31T23:12:54.059Z,99986.56
2022-10-31T23:15:24.195Z,99986.59
2022-10-31T23:17:52.728Z,99976.09
2022-10-31T23:20:21.496Z,99972.63
2022-10-31T23:22:50.072Z,99969.13
2022-10-31T23:25:36.672Z,99969.19
2022-10-31T23:28:05.259Z,99976.75
2022-10-31T23:30:35.725Z,99979.41
2022-10-31T23:33:04.363Z,99977.78
2022-10-31T23:35:33.247Z,99971.69
2022-10-31T23:38:02.050Z,99969.88
2022-10-31T23:40:30.936Z,99975.09
2022-10-31T23:42:59.424Z,99975.13
2022-10-31T23:45:28.619Z,99972.47
2022-10-31T23:47:58.751Z,99968.06
2022-10-31T23:50:27.591Z,99974.19
2022-10-31T23:52:56.064Z,99976.91
2022-10-31T23:55:25.331Z,99972.53
2022-10-31T23:57:53.863Z,99975.16
